sensor_id;sensor_type;location;lat;lon;timestamp;P1;durP1;ratioP1;P2;durP2;ratioP2
25125;SDS011;13106;50.808;5.670;2023-08-17T00:01:51;5.47;;;3.75;;
25125;SDS011;13106;50.808;5.670;2023-08-17T00:04:17;9.30;;;4.30;;
25125;SDS011;13106;50.808;5.670;2023-08-17T00:06:43;6.60;;;4.18;;
25125;SDS011;13106;50.808;5.670;2023-08-17T00:09:10;8.88;;;5.25;;
25125;SDS011;13106;50.808;5.670;2023-08-17T00:11:37;5.85;;;5.22;;
25125;SDS011;13106;50.808;5.670;2023-08-17T00:14:03;6.65;;;5.03;;
25125;SDS011;13106;50.808;5.670;2023-08-17T00:16:31;7.75;;;6.28;;
25125;SDS011;13106;50.808;5.670;2023-08-17T00:18:57;6.68;;;3.95;;
25125;SDS011;13106;50.808;5.670;2023-08-17T00:21:23;6.22;;;4.18;;
25125;SDS011;13106;50.808;5.670;2023-08-17T00:23:49;5.35;;;4.85;;
25125;SDS011;13106;50.808;5.670;2023-08-17T00:26:15;8.43;;;7.45;;
25125;SDS011;13106;50.808;5.670;2023-08-17T00:28:41;9.68;;;7.80;;
25125;SDS011;13106;50.808;5.670;2023-08-17T00:31:07;8.23;;;6.35;;
25125;SDS011;13106;50.808;5.670;2023-08-17T00:33:33;6.72;;;3.55;;
25125;SDS011;13106;50.808;5.670;2023-08-17T00:35:59;6.57;;;4.88;;
25125;SDS011;13106;50.808;5.670;2023-08-17T00:38:25;4.68;;;3.60;;
25125;SDS011;13106;50.808;5.670;2023-08-17T00:40:51;6.47;;;4.00;;
25125;SDS011;13106;50.808;5.670;2023-08-17T00:43:17;6.22;;;5.68;;
25125;SDS011;13106;50.808;5.670;2023-08-17T00:45:44;4.32;;;3.95;;
25125;SDS011;13106;50.808;5.670;2023-08-17T00:48:11;4.88;;;4.38;;
25125;SDS011;13106;50.808;5.670;2023-08-17T00:50:37;5.20;;;4.05;;
25125;SDS011;13106;50.808;5.670;2023-08-17T00:53:03;5.78;;;4.65;;
25125;SDS011;13106;50.808;5.670;2023-08-17T00:55:30;5.30;;;3.58;;
25125;SDS011;13106;50.808;5.670;2023-08-17T00:57:56;6.57;;;3.55;;
25125;SDS011;13106;50.808;5.670;2023-08-17T01:00:23;5.60;;;4.05;;
25125;SDS011;13106;50.808;5.670;2023-08-17T01:02:51;7.40;;;4.03;;
25125;SDS011;13106;50.808;5.670;2023-08-17T01:05:19;7.22;;;4.60;;
25125;SDS011;13106;50.808;5.670;2023-08-17T01:07:45;4.95;;;3.95;;
25125;SDS011;13106;50.808;5.670;2023-08-17T01:10:11;5.50;;;4.32;;
25125;SDS011;13106;50.808;5.670;2023-08-17T01:15:27;4.05;;;3.50;;
25125;SDS011;13106;50.808;5.670;2023-08-17T01:18:01;5.45;;;3.75;;
25125;SDS011;13106;50.808;5.670;2023-08-17T01:20:28;6.70;;;4.20;;
25125;SDS011;13106;50.808;5.670;2023-08-17T01:22:56;7.35;;;4.85;;
25125;SDS011;13106;50.808;5.670;2023-08-17T01:25:24;7.32;;;5.80;;
25125;SDS011;13106;50.808;5.670;2023-08-17T01:27:50;7.40;;;5.78;;
25125;SDS011;13106;50.808;5.670;2023-08-17T01:30:17;8.60;;;6.50;;
25125;SDS011;13106;50.808;5.670;2023-08-17T01:32:54;9.65;;;5.90;;
25125;SDS011;13106;50.808;5.670;2023-08-17T01:35:28;8.20;;;5.72;;
25125;SDS011;13106;50.808;5.670;2023-08-17T01:37:56;7.00;;;5.97;;
25125;SDS011;13106;50.808;5.670;2023-08-17T01:40:24;10.68;;;6.13;;
25125;SDS011;13106;50.808;5.670;2023-08-17T01:42:53;9.18;;;6.43;;
25125;SDS011;13106;50.808;5.670;2023-08-17T01:45:19;7.13;;;5.32;;
25125;SDS011;13106;50.808;5.670;2023-08-17T01:47:45;12.65;;;6.72;;
25125;SDS011;13106;50.808;5.670;2023-08-17T01:50:12;9.68;;;5.78;;
25125;SDS011;13106;50.808;5.670;2023-08-17T01:52:38;8.20;;;5.82;;
25125;SDS011;13106;50.808;5.670;2023-08-17T01:55:04;8.40;;;5.75;;
25125;SDS011;13106;50.808;5.670;2023-08-17T01:57:30;9.30;;;6.10;;
25125;SDS011;13106;50.808;5.670;2023-08-17T01:59:56;10.40;;;6.55;;
25125;SDS011;13106;50.808;5.670;2023-08-17T02:02:22;9.48;;;6.82;;
25125;SDS011;13106;50.808;5.670;2023-08-17T02:04:49;9.18;;;6.20;;
25125;SDS011;13106;50.808;5.670;2023-08-17T02:07:15;10.20;;;7.43;;
25125;SDS011;13106;50.808;5.670;2023-08-17T02:09:41;8.25;;;5.95;;
25125;SDS011;13106;50.808;5.670;2023-08-17T02:12:07;11.75;;;6.88;;
25125;SDS011;13106;50.808;5.670;2023-08-17T02:14:33;9.18;;;6.32;;
25125;SDS011;13106;50.808;5.670;2023-08-17T02:16:59;9.93;;;6.93;;
25125;SDS011;13106;50.808;5.670;2023-08-17T02:19:25;9.93;;;7.13;;
25125;SDS011;13106;50.808;5.670;2023-08-17T02:21:51;10.32;;;6.40;;
25125;SDS011;13106;50.808;5.670;2023-08-17T02:24:17;7.93;;;6.05;;
25125;SDS011;13106;50.808;5.670;2023-08-17T02:26:43;7.10;;;5.65;;
25125;SDS011;13106;50.808;5.670;2023-08-17T02:29:09;10.60;;;6.00;;
25125;SDS011;13106;50.808;5.670;2023-08-17T02:31:35;7.85;;;5.97;;
25125;SDS011;13106;50.808;5.670;2023-08-17T02:34:01;10.27;;;5.63;;
25125;SDS011;13106;50.808;5.670;2023-08-17T02:36:30;8.00;;;5.82;;
25125;SDS011;13106;50.808;5.670;2023-08-17T02:38:56;8.20;;;6.25;;
25125;SDS011;13106;50.808;5.670;2023-08-17T02:41:22;9.25;;;6.40;;
25125;SDS011;13106;50.808;5.670;2023-08-17T02:43:48;11.85;;;6.35;;
25125;SDS011;13106;50.808;5.670;2023-08-17T02:46:14;8.18;;;6.03;;
25125;SDS011;13106;50.808;5.670;2023-08-17T02:48:40;9.98;;;5.78;;
25125;SDS011;13106;50.808;5.670;2023-08-17T02:51:06;8.70;;;6.05;;
25125;SDS011;13106;50.808;5.670;2023-08-17T02:53:32;9.35;;;6.68;;
25125;SDS011;13106;50.808;5.670;2023-08-17T02:55:58;10.90;;;6.70;;
25125;SDS011;13106;50.808;5.670;2023-08-17T02:58:24;11.23;;;7.57;;
25125;SDS011;13106;50.808;5.670;2023-08-17T03:00:51;12.50;;;7.68;;
25125;SDS011;13106;50.808;5.670;2023-08-17T03:03:17;12.50;;;9.93;;
25125;SDS011;13106;50.808;5.670;2023-08-17T03:05:43;15.50;;;10.50;;
25125;SDS011;13106;50.808;5.670;2023-08-17T03:08:09;16.77;;;10.52;;
25125;SDS011;13106;50.808;5.670;2023-08-17T03:10:36;14.05;;;10.38;;
25125;SDS011;13106;50.808;5.670;2023-08-17T03:13:02;15.90;;;10.63;;
25125;SDS011;13106;50.808;5.670;2023-08-17T03:15:29;16.60;;;12.95;;
25125;SDS011;13106;50.808;5.670;2023-08-17T03:17:55;16.17;;;14.18;;
25125;SDS011;13106;50.808;5.670;2023-08-17T03:20:21;13.75;;;9.80;;
25125;SDS011;13106;50.808;5.670;2023-08-17T03:22:47;12.98;;;9.13;;
25125;SDS011;13106;50.808;5.670;2023-08-17T03:25:13;13.00;;;9.88;;
25125;SDS011;13106;50.808;5.670;2023-08-17T03:27:39;13.63;;;9.45;;
25125;SDS011;13106;50.808;5.670;2023-08-17T03:30:05;10.75;;;8.73;;
25125;SDS011;13106;50.808;5.670;2023-08-17T03:32:31;11.93;;;9.23;;
25125;SDS011;13106;50.808;5.670;2023-08-17T03:34:57;13.68;;;10.45;;
25125;SDS011;13106;50.808;5.670;2023-08-17T03:37:23;15.20;;;12.63;;
25125;SDS011;13106;50.808;5.670;2023-08-17T03:39:49;21.05;;;13.38;;
25125;SDS011;13106;50.808;5.670;2023-08-17T03:42:15;14.90;;;12.00;;
25125;SDS011;13106;50.808;5.670;2023-08-17T03:44:41;15.98;;;13.05;;
25125;SDS011;13106;50.808;5.670;2023-08-17T03:47:07;17.58;;;13.77;;
25125;SDS011;13106;50.808;5.670;2023-08-17T03:49:33;17.75;;;13.50;;
25125;SDS011;13106;50.808;5.670;2023-08-17T03:51:59;16.90;;;13.45;;
25125;SDS011;13106;50.808;5.670;2023-08-17T03:54:25;16.92;;;13.02;;
25125;SDS011;13106;50.808;5.670;2023-08-17T03:56:51;18.08;;;12.82;;
25125;SDS011;13106;50.808;5.670;2023-08-17T03:59:17;17.85;;;12.82;;
25125;SDS011;13106;50.808;5.670;2023-08-17T04:01:44;18.45;;;12.93;;
25125;SDS011;13106;50.808;5.670;2023-08-17T04:04:10;19.55;;;15.40;;
25125;SDS011;13106;50.808;5.670;2023-08-17T04:06:36;22.80;;;19.70;;
25125;SDS011;13106;50.808;5.670;2023-08-17T04:09:04;25.13;;;22.15;;
25125;SDS011;13106;50.808;5.670;2023-08-17T04:11:30;22.17;;;16.65;;
25125;SDS011;13106;50.808;5.670;2023-08-17T04:13:56;19.25;;;16.67;;
25125;SDS011;13106;50.808;5.670;2023-08-17T04:16:22;25.60;;;17.35;;
25125;SDS011;13106;50.808;5.670;2023-08-17T04:18:48;19.33;;;14.20;;
25125;SDS011;13106;50.808;5.670;2023-08-17T04:21:15;18.65;;;13.50;;
25125;SDS011;13106;50.808;5.670;2023-08-17T04:23:41;16.75;;;13.10;;
25125;SDS011;13106;50.808;5.670;2023-08-17T04:26:07;22.40;;;15.02;;
25125;SDS011;13106;50.808;5.670;2023-08-17T04:28:33;21.80;;;14.52;;
25125;SDS011;13106;50.808;5.670;2023-08-17T04:30:59;19.65;;;13.63;;
25125;SDS011;13106;50.808;5.670;2023-08-17T04:33:25;24.27;;;14.48;;
25125;SDS011;13106;50.808;5.670;2023-08-17T04:35:51;22.90;;;15.65;;
25125;SDS011;13106;50.808;5.670;2023-08-17T04:38:17;24.35;;;16.55;;
25125;SDS011;13106;50.808;5.670;2023-08-17T04:40:43;20.98;;;15.80;;
25125;SDS011;13106;50.808;5.670;2023-08-17T04:43:10;23.63;;;15.40;;
25125;SDS011;13106;50.808;5.670;2023-08-17T04:45:36;21.15;;;15.98;;
25125;SDS011;13106;50.808;5.670;2023-08-17T04:48:02;22.83;;;15.35;;
25125;SDS011;13106;50.808;5.670;2023-08-17T04:50:28;23.40;;;15.93;;
25125;SDS011;13106;50.808;5.670;2023-08-17T04:52:54;26.85;;;17.05;;
25125;SDS011;13106;50.808;5.670;2023-08-17T04:55:20;23.75;;;16.65;;
25125;SDS011;13106;50.808;5.670;2023-08-17T04:57:46;27.75;;;18.25;;
25125;SDS011;13106;50.808;5.670;2023-08-17T05:00:13;27.88;;;16.73;;
25125;SDS011;13106;50.808;5.670;2023-08-17T05:02:39;24.67;;;16.50;;
25125;SDS011;13106;50.808;5.670;2023-08-17T05:05:05;29.10;;;18.40;;
25125;SDS011;13106;50.808;5.670;2023-08-17T05:07:32;25.40;;;16.98;;
25125;SDS011;13106;50.808;5.670;2023-08-17T05:09:59;32.45;;;20.00;;
25125;SDS011;13106;50.808;5.670;2023-08-17T05:12:25;30.30;;;18.63;;
25125;SDS011;13106;50.808;5.670;2023-08-17T05:14:51;25.02;;;16.73;;
25125;SDS011;13106;50.808;5.670;2023-08-17T05:17:17;26.17;;;17.58;;
25125;SDS011;13106;50.808;5.670;2023-08-17T05:19:44;26.88;;;17.17;;
25125;SDS011;13106;50.808;5.670;2023-08-17T05:22:10;26.17;;;17.98;;
25125;SDS011;13106;50.808;5.670;2023-08-17T05:24:37;29.48;;;18.00;;
25125;SDS011;13106;50.808;5.670;2023-08-17T05:27:04;26.90;;;18.20;;
25125;SDS011;13106;50.808;5.670;2023-08-17T05:29:30;35.03;;;20.67;;
25125;SDS011;13106;50.808;5.670;2023-08-17T05:31:59;31.17;;;19.52;;
25125;SDS011;13106;50.808;5.670;2023-08-17T05:34:25;30.42;;;19.42;;
25125;SDS011;13106;50.808;5.670;2023-08-17T05:36:51;31.05;;;18.05;;
25125;SDS011;13106;50.808;5.670;2023-08-17T05:39:17;31.42;;;19.20;;
25125;SDS011;13106;50.808;5.670;2023-08-17T05:41:43;29.45;;;17.70;;
25125;SDS011;13106;50.808;5.670;2023-08-17T05:44:09;22.38;;;16.15;;
25125;SDS011;13106;50.808;5.670;2023-08-17T05:46:36;26.73;;;17.15;;
25125;SDS011;13106;50.808;5.670;2023-08-17T05:49:02;28.63;;;17.40;;
25125;SDS011;13106;50.808;5.670;2023-08-17T05:51:28;24.55;;;16.80;;
25125;SDS011;13106;50.808;5.670;2023-08-17T05:53:54;28.60;;;19.75;;
25125;SDS011;13106;50.808;5.670;2023-08-17T05:56:21;34.35;;;21.27;;
25125;SDS011;13106;50.808;5.670;2023-08-17T05:58:47;34.83;;;20.73;;
25125;SDS011;13106;50.808;5.670;2023-08-17T06:01:13;33.30;;;21.75;;
25125;SDS011;13106;50.808;5.670;2023-08-17T06:03:39;35.67;;;23.00;;
25125;SDS011;13106;50.808;5.670;2023-08-17T06:06:05;34.45;;;23.13;;
25125;SDS011;13106;50.808;5.670;2023-08-17T06:08:32;35.83;;;23.50;;
25125;SDS011;13106;50.808;5.670;2023-08-17T06:10:58;35.00;;;23.50;;
25125;SDS011;13106;50.808;5.670;2023-08-17T06:13:24;34.42;;;22.35;;
25125;SDS011;13106;50.808;5.670;2023-08-17T06:15:50;32.95;;;22.73;;
25125;SDS011;13106;50.808;5.670;2023-08-17T06:18:16;30.02;;;20.60;;
25125;SDS011;13106;50.808;5.670;2023-08-17T06:20:42;33.55;;;22.17;;
25125;SDS011;13106;50.808;5.670;2023-08-17T06:23:08;35.72;;;21.58;;
25125;SDS011;13106;50.808;5.670;2023-08-17T06:25:34;35.53;;;20.63;;
25125;SDS011;13106;50.808;5.670;2023-08-17T06:28:01;32.97;;;20.33;;
25125;SDS011;13106;50.808;5.670;2023-08-17T06:30:27;32.35;;;19.73;;
25125;SDS011;13106;50.808;5.670;2023-08-17T06:32:53;39.00;;;20.67;;
25125;SDS011;13106;50.808;5.670;2023-08-17T06:35:19;32.63;;;20.02;;
25125;SDS011;13106;50.808;5.670;2023-08-17T06:37:45;31.40;;;19.55;;
25125;SDS011;13106;50.808;5.670;2023-08-17T06:40:11;31.20;;;19.67;;
25125;SDS011;13106;50.808;5.670;2023-08-17T06:42:37;31.40;;;19.15;;
25125;SDS011;13106;50.808;5.670;2023-08-17T06:45:03;34.88;;;20.92;;
25125;SDS011;13106;50.808;5.670;2023-08-17T06:47:30;35.03;;;20.65;;
25125;SDS011;13106;50.808;5.670;2023-08-17T06:49:56;36.25;;;22.27;;
25125;SDS011;13106;50.808;5.670;2023-08-17T06:52:22;31.73;;;20.75;;
25125;SDS011;13106;50.808;5.670;2023-08-17T06:54:49;36.17;;;20.08;;
25125;SDS011;13106;50.808;5.670;2023-08-17T06:57:15;37.63;;;21.00;;
25125;SDS011;13106;50.808;5.670;2023-08-17T06:59:41;32.60;;;19.92;;
25125;SDS011;13106;50.808;5.670;2023-08-17T07:02:10;28.10;;;18.17;;
25125;SDS011;13106;50.808;5.670;2023-08-17T07:04:36;30.63;;;18.55;;
25125;SDS011;13106;50.808;5.670;2023-08-17T07:07:02;30.15;;;17.05;;
25125;SDS011;13106;50.808;5.670;2023-08-17T07:09:29;26.33;;;17.17;;
25125;SDS011;13106;50.808;5.670;2023-08-17T07:11:55;26.23;;;16.98;;
25125;SDS011;13106;50.808;5.670;2023-08-17T07:14:21;32.20;;;20.73;;
25125;SDS011;13106;50.808;5.670;2023-08-17T07:16:47;41.08;;;23.33;;
25125;SDS011;13106;50.808;5.670;2023-08-17T07:19:13;41.92;;;23.95;;
25125;SDS011;13106;50.808;5.670;2023-08-17T07:21:39;40.33;;;23.52;;
25125;SDS011;13106;50.808;5.670;2023-08-17T07:24:12;37.53;;;22.08;;
25125;SDS011;13106;50.808;5.670;2023-08-17T07:26:39;41.10;;;23.20;;
25125;SDS011;13106;50.808;5.670;2023-08-17T07:29:05;35.28;;;22.45;;
25125;SDS011;13106;50.808;5.670;2023-08-17T07:31:31;46.60;;;23.58;;
25125;SDS011;13106;50.808;5.670;2023-08-17T07:33:58;39.63;;;23.13;;
25125;SDS011;13106;50.808;5.670;2023-08-17T07:36:24;41.13;;;23.02;;
25125;SDS011;13106;50.808;5.670;2023-08-17T07:38:50;38.67;;;22.77;;
25125;SDS011;13106;50.808;5.670;2023-08-17T07:41:16;33.10;;;21.08;;
25125;SDS011;13106;50.808;5.670;2023-08-17T07:43:43;45.90;;;23.65;;
25125;SDS011;13106;50.808;5.670;2023-08-17T07:46:09;40.80;;;23.88;;
25125;SDS011;13106;50.808;5.670;2023-08-17T07:48:35;38.83;;;23.48;;
25125;SDS011;13106;50.808;5.670;2023-08-17T07:51:01;39.05;;;22.80;;
25125;SDS011;13106;50.808;5.670;2023-08-17T07:53:27;38.03;;;22.85;;
25125;SDS011;13106;50.808;5.670;2023-08-17T07:55:53;41.20;;;23.13;;
25125;SDS011;13106;50.808;5.670;2023-08-17T07:58:19;39.17;;;23.70;;
25125;SDS011;13106;50.808;5.670;2023-08-17T08:00:45;42.13;;;23.48;;
25125;SDS011;13106;50.808;5.670;2023-08-17T08:03:11;37.97;;;23.23;;
25125;SDS011;13106;50.808;5.670;2023-08-17T08:05:37;37.97;;;24.45;;
25125;SDS011;13106;50.808;5.670;2023-08-17T08:08:03;39.80;;;24.30;;
25125;SDS011;13106;50.808;5.670;2023-08-17T08:10:29;40.78;;;24.30;;
25125;SDS011;13106;50.808;5.670;2023-08-17T08:12:55;40.03;;;25.38;;
25125;SDS011;13106;50.808;5.670;2023-08-17T08:15:21;37.67;;;23.88;;
25125;SDS011;13106;50.808;5.670;2023-08-17T08:17:48;37.65;;;22.20;;
25125;SDS011;13106;50.808;5.670;2023-08-17T08:20:14;33.08;;;21.17;;
25125;SDS011;13106;50.808;5.670;2023-08-17T08:22:41;37.47;;;22.10;;
25125;SDS011;13106;50.808;5.670;2023-08-17T08:25:07;36.83;;;20.73;;
25125;SDS011;13106;50.808;5.670;2023-08-17T08:27:33;37.78;;;22.40;;
25125;SDS011;13106;50.808;5.670;2023-08-17T08:29:59;36.95;;;22.77;;
25125;SDS011;13106;50.808;5.670;2023-08-17T08:32:25;38.28;;;22.77;;
25125;SDS011;13106;50.808;5.670;2023-08-17T08:34:51;39.22;;;24.55;;
25125;SDS011;13106;50.808;5.670;2023-08-17T08:37:17;40.08;;;22.65;;
25125;SDS011;13106;50.808;5.670;2023-08-17T08:39:49;38.33;;;24.15;;
25125;SDS011;13106;50.808;5.670;2023-08-17T08:42:16;37.00;;;22.55;;
25125;SDS011;13106;50.808;5.670;2023-08-17T08:44:43;33.55;;;21.27;;
25125;SDS011;13106;50.808;5.670;2023-08-17T08:47:09;38.38;;;21.40;;
25125;SDS011;13106;50.808;5.670;2023-08-17T08:49:37;35.03;;;20.67;;
25125;SDS011;13106;50.808;5.670;2023-08-17T08:52:06;34.28;;;21.02;;
25125;SDS011;13106;50.808;5.670;2023-08-17T08:54:33;34.88;;;21.90;;
25125;SDS011;13106;50.808;5.670;2023-08-17T08:57:01;34.17;;;21.08;;
25125;SDS011;13106;50.808;5.670;2023-08-17T08:59:29;35.95;;;22.52;;
25125;SDS011;13106;50.808;5.670;2023-08-17T09:01:57;35.78;;;22.42;;
25125;SDS011;13106;50.808;5.670;2023-08-17T09:04:23;37.97;;;23.60;;
25125;SDS011;13106;50.808;5.670;2023-08-17T09:06:50;38.28;;;21.77;;
25125;SDS011;13106;50.808;5.670;2023-08-17T09:09:17;37.53;;;24.17;;
25125;SDS011;13106;50.808;5.670;2023-08-17T09:11:43;36.58;;;22.48;;
25125;SDS011;13106;50.808;5.670;2023-08-17T09:14:09;37.55;;;22.63;;
25125;SDS011;13106;50.808;5.670;2023-08-17T09:16:36;35.03;;;22.50;;
25125;SDS011;13106;50.808;5.670;2023-08-17T09:19:02;42.28;;;23.17;;
25125;SDS011;13106;50.808;5.670;2023-08-17T09:21:31;36.78;;;23.05;;
25125;SDS011;13106;50.808;5.670;2023-08-17T09:23:57;43.33;;;24.63;;
25125;SDS011;13106;50.808;5.670;2023-08-17T09:26:23;41.15;;;23.27;;
25125;SDS011;13106;50.808;5.670;2023-08-17T09:28:50;37.63;;;23.25;;
25125;SDS011;13106;50.808;5.670;2023-08-17T09:31:16;41.58;;;23.33;;
25125;SDS011;13106;50.808;5.670;2023-08-17T09:36:12;37.35;;;22.30;;
25125;SDS011;13106;50.808;5.670;2023-08-17T09:38:38;39.42;;;23.00;;
25125;SDS011;13106;50.808;5.670;2023-08-17T09:41:04;38.45;;;22.88;;
25125;SDS011;13106;50.808;5.670;2023-08-17T09:43:31;37.83;;;23.90;;
25125;SDS011;13106;50.808;5.670;2023-08-17T09:45:59;37.90;;;23.77;;
25125;SDS011;13106;50.808;5.670;2023-08-17T09:48:26;40.50;;;23.52;;
25125;SDS011;13106;50.808;5.670;2023-08-17T09:50:53;36.60;;;24.25;;
25125;SDS011;13106;50.808;5.670;2023-08-17T09:53:21;34.72;;;22.33;;
25125;SDS011;13106;50.808;5.670;2023-08-17T09:55:47;39.55;;;26.10;;
25125;SDS011;13106;50.808;5.670;2023-08-17T09:58:13;37.30;;;24.30;;
25125;SDS011;13106;50.808;5.670;2023-08-17T10:00:43;41.70;;;25.05;;
25125;SDS011;13106;50.808;5.670;2023-08-17T10:03:10;44.13;;;25.73;;
25125;SDS011;13106;50.808;5.670;2023-08-17T10:05:38;36.13;;;24.60;;
25125;SDS011;13106;50.808;5.670;2023-08-17T10:08:06;37.35;;;23.77;;
25125;SDS011;13106;50.808;5.670;2023-08-17T10:10:34;33.55;;;22.75;;
25125;SDS011;13106;50.808;5.670;2023-08-17T10:15:29;38.30;;;23.85;;
25125;SDS011;13106;50.808;5.670;2023-08-17T10:17:58;33.40;;;23.83;;
25125;SDS011;13106;50.808;5.670;2023-08-17T10:20:26;32.58;;;21.80;;
25125;SDS011;13106;50.808;5.670;2023-08-17T10:23:06;35.30;;;23.42;;
25125;SDS011;13106;50.808;5.670;2023-08-17T10:25:33;36.40;;;22.65;;
25125;SDS011;13106;50.808;5.670;2023-08-17T10:28:00;34.17;;;21.83;;
25125;SDS011;13106;50.808;5.670;2023-08-17T10:30:28;34.10;;;21.83;;
25125;SDS011;13106;50.808;5.670;2023-08-17T10:32:54;32.58;;;21.92;;
25125;SDS011;13106;50.808;5.670;2023-08-17T10:35:21;38.33;;;24.02;;
25125;SDS011;13106;50.808;5.670;2023-08-17T10:37:48;32.33;;;21.80;;
25125;SDS011;13106;50.808;5.670;2023-08-17T10:40:14;32.97;;;22.15;;
25125;SDS011;13106;50.808;5.670;2023-08-17T10:42:40;32.70;;;21.85;;
25125;SDS011;13106;50.808;5.670;2023-08-17T10:47:48;33.20;;;22.20;;
25125;SDS011;13106;50.808;5.670;2023-08-17T10:50:24;32.20;;;21.67;;
25125;SDS011;13106;50.808;5.670;2023-08-17T10:52:53;33.45;;;22.35;;
25125;SDS011;13106;50.808;5.670;2023-08-17T10:55:36;35.45;;;22.63;;
25125;SDS011;13106;50.808;5.670;2023-08-17T10:58:02;35.65;;;23.77;;
25125;SDS011;13106;50.808;5.670;2023-08-17T11:00:36;32.47;;;22.13;;
25125;SDS011;13106;50.808;5.670;2023-08-17T11:03:09;33.17;;;23.20;;
25125;SDS011;13106;50.808;5.670;2023-08-17T11:05:52;32.90;;;23.60;;
25125;SDS011;13106;50.808;5.670;2023-08-17T11:08:28;31.40;;;22.52;;
25125;SDS011;13106;50.808;5.670;2023-08-17T11:10:58;32.65;;;23.80;;
25125;SDS011;13106;50.808;5.670;2023-08-17T11:13:27;35.33;;;24.77;;
25125;SDS011;13106;50.808;5.670;2023-08-17T11:15:53;32.08;;;23.67;;
25125;SDS011;13106;50.808;5.670;2023-08-17T11:18:19;40.83;;;26.13;;
25125;SDS011;13106;50.808;5.670;2023-08-17T11:20:45;34.08;;;24.73;;
25125;SDS011;13106;50.808;5.670;2023-08-17T11:23:13;39.20;;;24.73;;
25125;SDS011;13106;50.808;5.670;2023-08-17T11:25:41;35.67;;;25.77;;
25125;SDS011;13106;50.808;5.670;2023-08-17T11:28:08;37.95;;;25.65;;
25125;SDS011;13106;50.808;5.670;2023-08-17T11:30:34;34.95;;;24.98;;
25125;SDS011;13106;50.808;5.670;2023-08-17T11:33:04;33.95;;;24.90;;
25125;SDS011;13106;50.808;5.670;2023-08-17T11:35:30;36.70;;;25.25;;
25125;SDS011;13106;50.808;5.670;2023-08-17T11:37:56;39.42;;;26.50;;
25125;SDS011;13106;50.808;5.670;2023-08-17T11:40:22;39.67;;;27.77;;
25125;SDS011;13106;50.808;5.670;2023-08-17T11:42:49;38.30;;;27.75;;
25125;SDS011;13106;50.808;5.670;2023-08-17T11:45:15;42.80;;;28.50;;
25125;SDS011;13106;50.808;5.670;2023-08-17T11:47:41;43.45;;;30.67;;
25125;SDS011;13106;50.808;5.670;2023-08-17T11:50:09;42.92;;;30.58;;
25125;SDS011;13106;50.808;5.670;2023-08-17T11:52:35;38.55;;;29.30;;
25125;SDS011;13106;50.808;5.670;2023-08-17T11:55:02;40.33;;;29.10;;
25125;SDS011;13106;50.808;5.670;2023-08-17T11:57:30;41.38;;;29.40;;
25125;SDS011;13106;50.808;5.670;2023-08-17T11:59:57;57.33;;;35.88;;
25125;SDS011;13106;50.808;5.670;2023-08-17T12:02:23;47.78;;;34.00;;
25125;SDS011;13106;50.808;5.670;2023-08-17T12:04:50;50.05;;;33.17;;
25125;SDS011;13106;50.808;5.670;2023-08-17T12:07:17;52.20;;;34.72;;
25125;SDS011;13106;50.808;5.670;2023-08-17T12:09:43;45.63;;;31.75;;
25125;SDS011;13106;50.808;5.670;2023-08-17T12:12:10;46.55;;;31.83;;
25125;SDS011;13106;50.808;5.670;2023-08-17T12:14:36;45.55;;;31.40;;
25125;SDS011;13106;50.808;5.670;2023-08-17T12:17:02;46.30;;;31.95;;
25125;SDS011;13106;50.808;5.670;2023-08-17T12:19:29;45.88;;;31.90;;
25125;SDS011;13106;50.808;5.670;2023-08-17T12:21:56;46.53;;;33.88;;
25125;SDS011;13106;50.808;5.670;2023-08-17T12:24:25;45.50;;;32.78;;
25125;SDS011;13106;50.808;5.670;2023-08-17T12:26:51;47.75;;;34.42;;
25125;SDS011;13106;50.808;5.670;2023-08-17T12:29:18;46.28;;;33.00;;
25125;SDS011;13106;50.808;5.670;2023-08-17T12:31:44;47.28;;;33.47;;
25125;SDS011;13106;50.808;5.670;2023-08-17T12:34:10;51.38;;;35.60;;
25125;SDS011;13106;50.808;5.670;2023-08-17T12:36:36;51.70;;;34.72;;
25125;SDS011;13106;50.808;5.670;2023-08-17T12:39:03;50.70;;;34.80;;
25125;SDS011;13106;50.808;5.670;2023-08-17T12:41:29;52.03;;;34.95;;
25125;SDS011;13106;50.808;5.670;2023-08-17T12:43:55;55.30;;;36.67;;
25125;SDS011;13106;50.808;5.670;2023-08-17T12:46:24;51.63;;;36.60;;
25125;SDS011;13106;50.808;5.670;2023-08-17T12:48:50;49.38;;;35.42;;
25125;SDS011;13106;50.808;5.670;2023-08-17T12:51:16;56.35;;;36.53;;
25125;SDS011;13106;50.808;5.670;2023-08-17T12:53:42;54.70;;;37.28;;
25125;SDS011;13106;50.808;5.670;2023-08-17T12:56:08;51.60;;;35.90;;
25125;SDS011;13106;50.808;5.670;2023-08-17T12:58:34;50.40;;;34.65;;
25125;SDS011;13106;50.808;5.670;2023-08-17T13:01:01;55.88;;;37.08;;
25125;SDS011;13106;50.808;5.670;2023-08-17T13:03:27;52.40;;;36.58;;
25125;SDS011;13106;50.808;5.670;2023-08-17T13:05:54;55.70;;;36.25;;
25125;SDS011;13106;50.808;5.670;2023-08-17T13:08:20;50.83;;;36.92;;
25125;SDS011;13106;50.808;5.670;2023-08-17T13:10:46;53.90;;;35.85;;
25125;SDS011;13106;50.808;5.670;2023-08-17T13:13:12;60.10;;;39.47;;
25125;SDS011;13106;50.808;5.670;2023-08-17T13:15:38;58.88;;;39.72;;
25125;SDS011;13106;50.808;5.670;2023-08-17T13:18:04;57.40;;;37.08;;
25125;SDS011;13106;50.808;5.670;2023-08-17T13:20:30;57.70;;;39.63;;
25125;SDS011;13106;50.808;5.670;2023-08-17T13:22:56;55.95;;;38.55;;
25125;SDS011;13106;50.808;5.670;2023-08-17T13:25:22;57.53;;;39.47;;
25125;SDS011;13106;50.808;5.670;2023-08-17T13:27:49;60.17;;;38.75;;
25125;SDS011;13106;50.808;5.670;2023-08-17T13:30:15;56.05;;;37.88;;
25125;SDS011;13106;50.808;5.670;2023-08-17T13:32:41;66.00;;;41.65;;
25125;SDS011;13106;50.808;5.670;2023-08-17T13:35:07;57.25;;;39.78;;
25125;SDS011;13106;50.808;5.670;2023-08-17T13:37:36;58.60;;;39.03;;
25125;SDS011;13106;50.808;5.670;2023-08-17T13:40:02;61.78;;;39.72;;
25125;SDS011;13106;50.808;5.670;2023-08-17T13:42:28;57.22;;;38.00;;
25125;SDS011;13106;50.808;5.670;2023-08-17T13:44:54;59.08;;;38.10;;
25125;SDS011;13106;50.808;5.670;2023-08-17T13:47:20;51.08;;;36.72;;
25125;SDS011;13106;50.808;5.670;2023-08-17T13:49:46;59.83;;;39.17;;
25125;SDS011;13106;50.808;5.670;2023-08-17T13:52:12;58.40;;;38.95;;
25125;SDS011;13106;50.808;5.670;2023-08-17T13:54:38;51.60;;;36.13;;
25125;SDS011;13106;50.808;5.670;2023-08-17T13:57:05;50.90;;;36.13;;
25125;SDS011;13106;50.808;5.670;2023-08-17T13:59:31;57.28;;;37.92;;
25125;SDS011;13106;50.808;5.670;2023-08-17T14:01:57;57.22;;;38.97;;
25125;SDS011;13106;50.808;5.670;2023-08-17T14:04:23;60.50;;;39.15;;
25125;SDS011;13106;50.808;5.670;2023-08-17T14:06:49;57.67;;;38.25;;
25125;SDS011;13106;50.808;5.670;2023-08-17T14:09:17;57.42;;;39.08;;
25125;SDS011;13106;50.808;5.670;2023-08-17T14:11:43;54.60;;;37.80;;
25125;SDS011;13106;50.808;5.670;2023-08-17T14:14:09;60.97;;;40.05;;
25125;SDS011;13106;50.808;5.670;2023-08-17T14:16:35;55.40;;;38.58;;
25125;SDS011;13106;50.808;5.670;2023-08-17T14:19:02;51.75;;;36.00;;
25125;SDS011;13106;50.808;5.670;2023-08-17T14:21:28;57.75;;;39.13;;
25125;SDS011;13106;50.808;5.670;2023-08-17T14:23:54;56.22;;;38.92;;
25125;SDS011;13106;50.808;5.670;2023-08-17T14:26:20;61.53;;;39.63;;
25125;SDS011;13106;50.808;5.670;2023-08-17T14:28:46;54.78;;;39.30;;
25125;SDS011;13106;50.808;5.670;2023-08-17T14:31:12;60.88;;;39.72;;
25125;SDS011;13106;50.808;5.670;2023-08-17T14:33:42;60.75;;;39.42;;